Time;durP1;ratioP1;P1;durP2;ratioP2;P2;SDS_P1;SDS_P2;PMS_P1;PMS_P2;Temp;Humidity;BMP_temperature;BMP_pressure;BME280_temperature;BME280_humidity;BME280_pressure;Samples;Min_cycle;Max_cycle;Signal;HPM_P1;HPM_P2
2022/06/07 00:00:09;;;;;;;20.25;10.77;;;12.50;99.90;;;;;;4892113;29;20052;-58
2022/06/07 00:02:37;;;;;;;20.10;12.25;;;12.50;99.90;;;;;;4896933;29;20044;-58
2022/06/07 00:05:06;;;;;;;21.10;11.55;;;12.50;99.90;;;;;;4896057;29;20067;-57
2022/06/07 00:07:34;;;;;;;22.02;12.52;;;12.50;99.90;;;;;;4894870;29;20602;-57
2022/06/07 00:10:02;;;;;;;21.83;12.02;;;12.50;99.90;;;;;;4894381;29;20060;-58
2022/06/07 00:12:30;;;;;;;22.23;11.48;;;12.50;99.90;;;;;;4896750;29;20060;-58
2022/06/07 00:14:58;;;;;;;23.55;11.50;;;12.40;99.90;;;;;;4895780;29;20048;-58
2022/06/07 00:17:26;;;;;;;19.27;11.70;;;12.40;99.90;;;;;;4894579;29;20409;-58
2022/06/07 00:19:53;;;;;;;18.80;11.63;;;12.40;99.90;;;;;;4897019;29;20442;-58
2022/06/07 00:22:21;;;;;;;20.40;12.00;;;12.40;99.90;;;;;;4893191;29;20664;-58
2022/06/07 00:24:49;;;;;;;19.55;11.02;;;12.40;99.90;;;;;;4895210;29;20052;-58
2022/06/07 00:27:16;;;;;;;21.05;11.88;;;12.40;99.90;;;;;;4894199;29;20127;-57
2022/06/07 00:29:46;;;;;;;18.92;11.13;;;12.30;99.90;;;;;;4894556;29;20048;-57
2022/06/07 00:32:17;;;;;;;21.38;12.05;;;12.30;99.90;;;;;;4894440;29;20056;-56
2022/06/07 00:34:45;;;;;;;22.88;12.07;;;12.30;99.90;;;;;;4894398;29;20059;-57
2022/06/07 00:37:13;;;;;;;23.70;12.40;;;12.30;99.90;;;;;;4894199;29;20052;-57
2022/06/07 00:39:41;;;;;;;23.90;13.00;;;12.30;99.90;;;;;;4892200;29;20055;-57
2022/06/07 00:42:10;;;;;;;24.27;12.10;;;12.30;99.90;;;;;;4888594;29;20049;-56
2022/06/07 00:44:43;;;;;;;24.33;13.02;;;12.30;99.90;;;;;;4893426;29;20049;-57
2022/06/07 00:47:25;;;;;;;21.98;12.23;;;12.30;99.90;;;;;;4892202;29;20074;-56
2022/06/07 00:49:55;;;;;;;21.42;12.40;;;12.30;99.90;;;;;;4896064;29;20053;-57
2022/06/07 00:52:24;;;;;;;;;;;12.30;99.90;;;;;;4892655;29;20068;-57
2022/06/07 00:54:52;;;;;;;24.52;12.57;;;12.30;99.90;;;;;;4894734;29;19923;-57
2022/06/07 00:57:39;;;;;;;25.67;12.70;;;12.30;99.90;;;;;;4887763;29;20044;-57
2022/06/07 01:00:14;;;;;;;23.23;12.65;;;12.30;99.90;;;;;;4893329;29;20048;-57
2022/06/07 01:02:43;;;;;;;22.02;11.93;;;12.20;99.90;;;;;;4875193;29;20053;-57
2022/06/07 01:05:11;;;;;;;21.13;12.52;;;12.30;99.90;;;;;;4889012;29;20529;-58
2022/06/07 01:10:43;;;;;;;23.60;13.23;;;12.30;99.90;;;;;;4891839;29;20489;-58
2022/06/07 01:13:21;;;;;;;23.83;13.43;;;12.30;99.90;;;;;;4892862;29;20059;-58
2022/06/07 01:16:00;;;;;;;24.48;13.50;;;12.30;99.90;;;;;;4894107;29;20059;-57
2022/06/07 01:18:34;;;;;;;25.65;12.25;;;12.30;99.90;;;;;;4892505;29;20048;-57
2022/06/07 01:21:10;;;;;;;25.10;13.00;;;12.30;99.90;;;;;;4893784;29;20902;-58
2022/06/07 01:23:39;;;;;;;24.63;12.93;;;12.30;99.90;;;;;;4892679;29;20048;-58
2022/06/07 01:26:10;;;;;;;20.90;13.05;;;12.30;99.90;;;;;;4887136;29;20049;-58
2022/06/07 01:28:39;;;;;;;23.73;13.48;;;12.30;99.90;;;;;;4900744;29;20075;-57
2022/06/07 01:31:08;;;;;;;22.10;12.80;;;12.30;99.90;;;;;;4887350;29;20405;-56
2022/06/07 01:33:36;;;;;;;24.92;13.02;;;12.30;99.90;;;;;;4878486;29;20524;-57
2022/06/07 01:36:07;;;;;;;22.33;12.70;;;12.30;99.90;;;;;;4895925;29;20504;-57
2022/06/07 01:38:36;;;;;;;28.83;13.98;;;12.30;99.90;;;;;;4882951;29;20053;-58
2022/06/07 01:43:52;;;;;;;29.25;13.73;;;12.30;99.90;;;;;;4881309;29;20110;-58
2022/06/07 01:46:19;;;;;;;24.15;12.73;;;12.30;99.90;;;;;;4892634;29;20394;-58
2022/06/07 01:48:50;;;;;;;28.30;13.38;;;12.30;99.90;;;;;;4876143;29;20053;-58
2022/06/07 01:51:18;;;;;;;23.27;13.68;;;12.30;99.90;;;;;;4887682;29;20055;-59
2022/06/07 01:53:47;;;;;;;25.75;13.27;;;12.30;99.90;;;;;;4895746;29;20055;-58
2022/06/07 01:56:17;;;;;;;25.05;12.70;;;12.30;99.90;;;;;;4892855;29;20063;-58
2022/06/07 01:58:49;;;;;;;25.27;13.95;;;12.30;99.90;;;;;;4878041;29;20064;-58
2022/06/07 02:01:17;;;;;;;26.25;14.32;;;12.30;99.90;;;;;;4891659;29;20051;-58
2022/06/07 02:03:45;;;;;;;28.90;13.55;;;12.30;99.90;;;;;;4892203;29;20037;-59
2022/06/07 02:06:13;;;;;;;26.23;13.27;;;12.30;99.90;;;;;;4889263;29;20088;-58
2022/06/07 02:08:45;;;;;;;32.53;14.02;;;12.20;99.90;;;;;;4894592;29;20045;-58
2022/06/07 02:11:21;;;;;;;29.23;13.93;;;12.20;99.90;;;;;;4893667;29;20049;-58
2022/06/07 02:14:02;;;;;;;24.83;12.98;;;12.20;99.90;;;;;;4894694;29;20057;-58
2022/06/07 02:16:30;;;;;;;27.27;14.05;;;12.10;99.90;;;;;;4895388;29;20188;-58
2022/06/07 02:18:58;;;;;;;29.90;14.77;;;12.10;99.90;;;;;;4892826;29;20041;-57
2022/06/07 02:21:31;;;;;;;25.13;14.43;;;12.10;99.90;;;;;;4893586;29;20060;-58
2022/06/07 02:23:59;;;;;;;28.58;14.13;;;12.10;99.90;;;;;;4893729;29;20053;-58
2022/06/07 02:26:32;;;;;;;26.63;14.60;;;12.10;99.90;;;;;;4893406;29;20060;-57
2022/06/07 02:29:08;;;;;;;27.42;13.90;;;12.10;99.90;;;;;;4894014;29;20064;-57
2022/06/07 02:31:39;;;;;;;27.75;14.82;;;12.00;99.90;;;;;;4892290;29;20048;-57
2022/06/07 02:34:07;;;;;;;29.88;15.65;;;12.00;99.90;;;;;;4894392;29;20060;-58
2022/06/07 02:36:37;;;;;;;25.80;12.70;;;12.00;99.90;;;;;;4893894;29;20108;-57
2022/06/07 02:39:04;;;;;;;25.08;13.23;;;12.00;99.90;;;;;;4893328;29;20044;-57
2022/06/07 02:41:34;;;;;;;27.30;14.60;;;12.00;99.90;;;;;;4893628;29;20049;-58
2022/06/07 02:44:02;;;;;;;25.65;13.38;;;12.00;99.90;;;;;;4873071;29;20064;-58
2022/06/07 02:46:34;;;;;;;27.17;14.25;;;11.90;99.90;;;;;;4892243;29;20555;-57
2022/06/07 02:49:03;;;;;;;28.65;14.25;;;11.90;99.90;;;;;;4891279;29;20382;-58
2022/06/07 02:51:32;;;;;;;28.42;14.13;;;11.90;99.90;;;;;;4894177;29;20060;-58
2022/06/07 02:54:05;;;;;;;25.77;14.25;;;11.90;99.90;;;;;;4891515;29;20052;-58
2022/06/07 02:56:33;;;;;;;26.95;13.82;;;11.90;99.90;;;;;;4894864;29;20402;-57
2022/06/07 02:59:01;;;;;;;27.77;14.05;;;11.80;99.90;;;;;;4891117;29;20052;-58
2022/06/07 03:01:29;;;;;;;25.63;14.70;;;11.80;99.90;;;;;;4894001;29;20067;-58
2022/06/07 03:03:59;;;;;;;32.05;16.10;;;11.80;99.90;;;;;;4893419;29;20048;-58
2022/06/07 03:06:31;;;;;;;26.42;14.75;;;11.70;99.90;;;;;;4890126;29;20048;-58
2022/06/07 03:08:59;;;;;;;30.25;15.50;;;11.70;99.90;;;;;;4890557;29;20052;-58
2022/06/07 03:11:27;;;;;;;28.13;15.02;;;11.60;99.90;;;;;;4893200;29;20048;-58
2022/06/07 03:13:56;;;;;;;31.13;15.77;;;11.50;99.90;;;;;;4891545;29;20048;-59
2022/06/07 03:16:28;;;;;;;25.92;14.13;;;11.50;99.90;;;;;;4894129;29;20048;-58
2022/06/07 03:19:00;;;;;;;31.65;15.52;;;11.50;99.90;;;;;;4880287;29;20052;-59
2022/06/07 03:21:32;;;;;;;28.52;13.95;;;11.50;99.90;;;;;;4891612;29;20048;-59
2022/06/07 03:24:00;;;;;;;30.95;14.85;;;11.40;99.90;;;;;;4893919;29;20045;-58
2022/06/07 03:26:29;;;;;;;25.35;13.38;;;11.40;99.90;;;;;;4895626;29;20405;-58
2022/06/07 03:29:08;;;;;;;;;;;11.30;99.90;;;;;;4898583;29;20044;-58
2022/06/07 03:31:35;;;;;;;31.42;14.25;;;11.30;99.90;;;;;;4895698;29;19931;-58
2022/06/07 03:34:07;;;;;;;29.45;15.30;;;11.30;99.90;;;;;;4896997;29;20048;-58
2022/06/07 03:36:40;;;;;;;29.25;15.27;;;11.20;99.90;;;;;;4882553;29;20520;-57
2022/06/07 03:39:10;;;;;;;31.17;15.35;;;11.20;99.90;;;;;;4894824;29;20060;-57
2022/06/07 03:41:49;;;;;;;28.95;14.27;;;11.20;99.90;;;;;;4896567;29;20065;-58
2022/06/07 03:44:21;;;;;;;27.92;14.32;;;11.20;99.90;;;;;;4894755;29;20045;-57
2022/06/07 03:46:56;;;;;;;28.70;14.13;;;11.10;99.90;;;;;;4880522;29;20071;-58
2022/06/07 03:49:23;;;;;;;28.95;13.13;;;11.10;99.90;;;;;;4896370;29;20052;-56
2022/06/07 03:51:55;;;;;;;33.67;14.23;;;11.10;99.90;;;;;;4897549;29;20051;-57
2022/06/07 03:54:24;;;;;;;31.15;14.15;;;11.10;99.90;;;;;;4891653;29;20037;-59
2022/06/07 03:56:51;;;;;;;29.95;15.32;;;11.10;99.90;;;;;;4896977;29;20045;-58
2022/06/07 03:59:23;;;;;;;30.73;15.43;;;11.00;99.90;;;;;;4893127;29;20045;-58
2022/06/07 04:01:50;;;;;;;29.80;15.45;;;11.10;99.90;;;;;;4891803;29;20052;-58
2022/06/07 04:04:19;;;;;;;29.25;14.75;;;11.10;99.90;;;;;;4883580;29;20045;-57
2022/06/07 04:09:43;;;;;;;31.92;16.83;;;11.00;99.90;;;;;;4895199;29;20679;-58
2022/06/07 04:12:18;;;;;;;32.17;16.70;;;11.00;99.90;;;;;;4896718;29;20072;-58
2022/06/07 04:14:47;;;;;;;33.92;17.33;;;11.00;99.90;;;;;;4891455;29;20410;-58
2022/06/07 04:17:16;;;;;;;33.85;16.50;;;11.00;99.90;;;;;;4889532;29;20068;-56
2022/06/07 04:19:50;;;;;;;38.38;16.45;;;11.00;99.90;;;;;;4892365;29;20052;-58
2022/06/07 04:22:20;;;;;;;31.23;15.73;;;11.00;99.90;;;;;;4896667;29;20131;-58
2022/06/07 04:24:54;;;;;;;31.27;16.67;;;11.00;99.90;;;;;;4896965;29;20059;-58
2022/06/07 04:27:23;;;;;;;35.43;16.17;;;11.00;99.90;;;;;;4894424;29;20057;-58
2022/06/07 04:29:55;;;;;;;34.53;16.08;;;11.00;99.90;;;;;;4895804;29;20055;-58
2022/06/07 04:32:23;;;;;;;39.03;17.15;;;11.00;99.90;;;;;;4895657;29;20041;-58
2022/06/07 04:34:53;;;;;;;35.08;16.63;;;11.10;99.90;;;;;;4890554;29;20431;-57
2022/06/07 04:37:23;;;;;;;33.28;15.45;;;11.00;99.90;;;;;;4894076;29;20102;-57
2022/06/07 04:39:56;;;;;;;34.08;17.05;;;11.00;99.90;;;;;;4896230;29;20421;-57
2022/06/07 04:42:24;;;;;;;36.65;17.98;;;11.00;99.90;;;;;;4896737;29;20052;-56
2022/06/07 04:45:00;;;;;;;36.72;17.48;;;11.00;99.90;;;;;;4885683;29;20052;-57
2022/06/07 04:47:44;;;;;;;33.10;17.40;;;11.00;99.90;;;;;;4882571;29;20044;-56
2022/06/07 04:50:14;;;;;;;;;;;11.10;99.90;;;;;;4889610;29;20501;-57
2022/06/07 04:52:43;;;;;;;35.17;18.15;;;11.00;99.90;;;;;;4887930;29;19931;-57
2022/06/07 04:55:13;;;;;;;36.90;17.73;;;11.10;99.90;;;;;;4893960;29;20041;-56
2022/06/07 04:57:41;;;;;;;;;;;11.00;99.90;;;;;;4892116;29;20049;-56
2022/06/07 05:00:15;;;;;;;;;;;11.10;99.90;;;;;;4892686;29;19935;-56
2022/06/07 05:02:47;;;;;;;36.65;17.70;;;11.00;99.90;;;;;;4885055;29;19924;-57
2022/06/07 05:05:17;;;;;;;46.42;18.75;;;11.10;99.90;;;;;;4873992;29;20041;-57
2022/06/07 05:07:47;;;;;;;43.38;21.05;;;11.10;99.90;;;;;;4863626;29;20048;-56
2022/06/07 05:10:19;;;;;;;37.03;20.20;;;11.10;99.90;;;;;;4876708;29;20064;-57
2022/06/07 05:12:50;;;;;;;40.45;20.23;;;11.10;99.90;;;;;;4893834;29;20366;-57
2022/06/07 05:15:21;;;;;;;41.55;19.25;;;11.20;99.90;;;;;;4893168;29;20558;-57
2022/06/07 05:17:57;;;;;;;42.85;20.80;;;11.20;99.90;;;;;;4890635;29;20063;-57
2022/06/07 05:20:26;;;;;;;40.85;19.38;;;11.30;99.90;;;;;;4889557;29;20036;-56
2022/06/07 05:23:03;;;;;;;43.90;19.92;;;11.30;99.90;;;;;;4892198;29;20049;-56
2022/06/07 05:25:33;;;;;;;45.88;18.75;;;11.40;99.90;;;;;;4892389;29;20509;-57
2022/06/07 05:28:01;;;;;;;41.47;19.30;;;11.40;99.90;;;;;;4891711;29;20059;-56
2022/06/07 05:30:33;;;;;;;39.17;18.98;;;11.50;99.90;;;;;;4888828;29;20053;-58
2022/06/07 05:33:22;;;;;;;37.53;18.57;;;11.60;99.90;;;;;;4881539;29;20049;-57
2022/06/07 05:35:54;;;;;;;37.75;17.65;;;11.70;99.90;;;;;;4900375;29;20314;-57
2022/06/07 05:38:23;;;;;;;38.03;18.67;;;11.70;99.90;;;;;;4889971;29;20053;-58
2022/06/07 05:41:00;;;;;;;40.97;18.85;;;11.80;99.90;;;;;;4872734;29;20680;-57
2022/06/07 05:43:28;;;;;;;42.38;19.30;;;11.80;99.90;;;;;;4893421;29;20048;-57
2022/06/07 05:45:59;;;;;;;36.00;17.95;;;11.80;99.90;;;;;;4894244;29;20048;-57
2022/06/07 05:48:38;;;;;;;43.00;19.43;;;11.90;99.90;;;;;;4888814;29;20044;-57
2022/06/07 05:51:10;;;;;;;42.97;19.83;;;11.90;99.90;;;;;;4883463;29;20053;-57
2022/06/07 05:53:38;;;;;;;39.10;19.35;;;11.90;99.90;;;;;;4856403;29;20061;-57
2022/06/07 05:56:07;;;;;;;41.08;18.60;;;11.90;99.90;;;;;;4892126;29;20056;-57
2022/06/07 05:58:36;;;;;;;37.50;19.47;;;12.00;99.90;;;;;;4877917;29;20037;-58
2022/06/07 06:01:07;;;;;;;42.83;19.20;;;12.00;99.90;;;;;;4890567;29;20529;-57
2022/06/07 06:03:36;;;;;;;39.15;18.02;;;12.00;99.90;;;;;;4889496;29;20048;-57
2022/06/07 06:06:07;;;;;;;39.92;19.83;;;12.00;99.90;;;;;;4891575;29;20056;-57
2022/06/07 06:11:33;;;;;;;39.83;19.58;;;12.10;99.90;;;;;;4891981;29;20055;-56
2022/06/07 06:14:27;;;;;;;39.53;19.60;;;12.10;99.90;;;;;;4879281;29;20060;-57
2022/06/07 06:17:04;;;;;;;44.58;21.10;;;12.10;99.90;;;;;;4891196;29;20040;-58
2022/06/07 06:19:41;;;;;;;41.22;19.52;;;12.20;99.90;;;;;;4890071;29;20788;-57
2022/06/07 06:22:09;;;;;;;38.35;20.65;;;12.20;99.90;;;;;;4876277;29;20504;-58
2022/06/07 06:24:43;;;;;;;43.55;20.50;;;12.20;99.90;;;;;;4887685;29;20049;-57
2022/06/07 06:27:11;;;;;;;47.63;22.42;;;12.20;99.90;;;;;;4889639;29;20056;-56
2022/06/07 06:29:43;;;;;;;42.78;19.88;;;12.20;99.90;;;;;;4873793;29;20045;-56
2022/06/07 06:32:11;;;;;;;44.10;20.50;;;12.30;99.90;;;;;;4877148;29;20052;-57
2022/06/07 06:34:43;;;;;;;39.60;19.23;;;12.30;99.90;;;;;;4888486;29;20060;-56
2022/06/07 06:37:13;;;;;;;39.93;21.73;;;12.30;99.90;;;;;;4886869;29;20067;-56
2022/06/07 06:39:43;;;;;;;45.13;20.73;;;12.40;99.90;;;;;;4890071;29;20505;-57
2022/06/07 06:42:11;;;;;;;51.20;22.00;;;12.40;99.90;;;;;;4888370;29;20060;-58
2022/06/07 06:45:14;;;;;;;48.47;20.25;;;12.40;99.90;;;;;;4883283;29;20049;-58
2022/06/07 06:47:46;;;;;;;45.28;20.30;;;12.40;99.90;;;;;;4882145;29;20057;-57
2022/06/07 06:50:14;;;;;;;46.40;21.63;;;12.50;99.90;;;;;;4875429;29;20053;-58
2022/06/07 06:52:42;;;;;;;49.47;21.35;;;12.50;99.90;;;;;;4888862;29;20045;-57
2022/06/07 06:55:11;;;;;;;42.90;20.38;;;12.60;99.90;;;;;;4904887;29;20413;-58
2022/06/07 06:57:40;;;;;;;46.22;21.80;;;12.70;99.90;;;;;;4902081;29;20037;-59
2022/06/07 07:00:09;;;;;;;41.83;20.98;;;12.80;99.90;;;;;;4876021;29;20049;-58
2022/06/07 07:02:42;;;;;;;41.85;19.90;;;12.80;99.90;;;;;;4888087;29;20449;-57
2022/06/07 07:05:16;;;;;;;45.83;18.92;;;12.90;99.90;;;;;;4889261;29;20539;-59
2022/06/07 07:07:49;;;;;;;48.13;21.15;;;12.90;99.90;;;;;;4887684;29;20630;-57
2022/06/07 07:10:21;;;;;;;49.28;20.75;;;13.00;99.90;;;;;;4878595;29;20060;-58
2022/06/07 07:12:50;;;;;;;47.08;20.63;;;13.10;99.90;;;;;;4887207;29;20052;-58
2022/06/07 07:15:24;;;;;;;47.25;19.90;;;13.10;99.90;;;;;;4869988;29;20049;-58
2022/06/07 07:18:02;;;;;;;39.17;17.50;;;13.20;99.90;;;;;;4879700;29;20490;-58
2022/06/07 07:20:39;;;;;;;37.42;16.58;;;13.20;99.90;;;;;;4897099;29;20056;-57
2022/06/07 07:23:08;;;;;;;38.22;17.23;;;13.30;99.90;;;;;;4880059;29;20059;-57
2022/06/07 07:25:37;;;;;;;34.95;16.90;;;13.40;99.90;;;;;;4873919;29;20053;-57
2022/06/07 07:28:05;;;;;;;36.70;16.35;;;13.40;99.90;;;;;;4882182;29;20044;-58
2022/06/07 07:30:34;;;;;;;27.27;13.13;;;13.50;99.90;;;;;;4884567;29;20041;-57
2022/06/07 07:33:02;;;;;;;27.65;13.13;;;13.50;99.90;;;;;;4881258;29;20252;-57
2022/06/07 07:35:30;;;;;;;22.98;11.10;;;13.70;99.90;;;;;;4883109;29;20569;-57
2022/06/07 07:38:03;;;;;;;29.30;13.77;;;13.80;99.90;;;;;;4891095;29;20044;-57
2022/06/07 07:40:32;;;;;;;;;;;13.90;99.90;;;;;;4895273;29;20040;-58
2022/06/07 07:43:05;;;;;;;27.17;13.55;;;14.00;99.90;;;;;;4894823;29;19932;-57
2022/06/07 07:45:35;;;;;;;30.13;12.80;;;14.10;99.90;;;;;;4895506;29;20401;-56
2022/06/07 07:48:11;;;;;;;27.88;12.55;;;14.30;99.90;;;;;;4894655;29;20048;-59
2022/06/07 07:50:42;;;;;;;29.13;13.32;;;14.50;99.90;;;;;;4892854;29;20051;-58
2022/06/07 07:53:13;;;;;;;27.42;12.48;;;14.70;99.90;;;;;;4888343;29;20054;-58
2022/06/07 07:55:44;;;;;;;28.33;12.68;;;14.90;99.90;;;;;;4894275;29;20049;-58
2022/06/07 07:58:12;;;;;;;24.73;11.77;;;15.20;99.90;;;;;;4886587;29;20049;-59
2022/06/07 08:00:42;;;;;;;21.77;10.02;;;15.40;99.90;;;;;;4878833;29;20048;-57
2022/06/07 08:03:11;;;;;;;;;;;15.60;99.90;;;;;;4892866;29;20053;-58
2022/06/07 08:05:54;;;;;;;18.33;9.50;;;15.80;99.90;;;;;;4894772;29;20435;-58
2022/06/07 08:08:22;;;;;;;23.58;10.60;;;16.00;99.90;;;;;;4895900;29;20048;-58
2022/06/07 08:10:49;;;;;;;18.48;9.60;;;16.00;99.90;;;;;;4891382;29;20048;-59
2022/06/07 08:13:17;;;;;;;17.92;9.23;;;16.10;99.90;;;;;;4888694;29;20048;-59
2022/06/07 08:15:46;;;;;;;19.27;10.40;;;16.20;99.90;;;;;;4887733;29;20064;-58
2022/06/07 08:18:14;;;;;;;20.25;10.00;;;16.20;99.90;;;;;;4892534;29;20040;-57
2022/06/07 08:20:41;;;;;;;17.98;9.65;;;16.20;99.90;;;;;;4894791;29;20083;-58
2022/06/07 08:23:10;;;;;;;19.58;9.63;;;16.20;99.90;;;;;;4896749;29;20539;-57
2022/06/07 08:25:38;;;;;;;21.48;9.65;;;16.30;99.90;;;;;;4892645;29;20060;-59
2022/06/07 08:28:06;;;;;;;18.88;9.35;;;16.20;99.90;;;;;;4892815;29;20056;-58
2022/06/07 08:30:37;;;;;;;15.75;7.05;;;16.10;99.90;;;;;;4894337;29;20617;-58
2022/06/07 08:37:33;;;;;;;14.35;7.53;;;16.10;99.90;;;;;;4895340;29;20513;-58
2022/06/07 08:38:40;;;;;;;13.63;8.38;;;15.90;99.90;;;;;;4892449;29;20625;-58
2022/06/07 08:41:19;;;;;;;18.15;9.18;;;15.90;99.90;;;;;;4894116;29;20053;-59
2022/06/07 08:43:46;;;;;;;20.20;9.75;;;15.90;99.90;;;;;;4894010;29;20544;-58
2022/06/07 08:46:18;;;;;;;19.40;9.38;;;16.00;99.90;;;;;;4893977;29;20051;-59
2022/06/07 08:48:46;;;;;;;20.27;9.80;;;16.10;99.90;;;;;;4890762;29;20052;-58
2022/06/07 08:51:32;;;;;;;17.90;8.65;;;16.30;99.90;;;;;;4890575;29;20056;-58
2022/06/07 08:54:02;;;;;;;16.30;8.30;;;16.40;99.90;;;;;;4885891;29;20075;-58
2022/06/07 08:56:34;;;;;;;;;;;16.60;99.90;;;;;;4893577;29;20045;-57
2022/06/07 08:59:15;;;;;;;17.92;8.88;;;16.80;99.90;;;;;;4871482;29;19924;-58
2022/06/07 09:01:59;;;;;;;19.08;9.18;;;16.90;99.90;;;;;;4885978;29;20056;-57
2022/06/07 09:04:30;;;;;;;16.30;8.52;;;17.00;99.90;;;;;;4892717;29;20045;-58
2022/06/07 09:07:03;;;;;;;14.80;8.80;;;17.00;99.90;;;;;;4887244;29;20041;-58
2022/06/07 09:12:30;;;;;;;15.52;8.27;;;17.10;99.90;;;;;;4891778;29;20056;-58
2022/06/07 09:15:09;;;;;;;13.88;7.75;;;17.20;99.90;;;;;;4889866;29;20565;-58
2022/06/07 09:17:46;;;;;;;16.73;8.75;;;17.20;99.90;;;;;;4889267;29;20052;-58
2022/06/07 09:20:17;;;;;;;13.63;7.88;;;17.20;99.90;;;;;;4888018;29;20605;-59
2022/06/07 09:23:04;;;;;;;15.73;8.77;;;17.20;99.90;;;;;;4893400;29;20052;-58
2022/06/07 09:25:36;;;;;;;20.48;8.10;;;17.30;99.90;;;;;;4891068;29;20057;-58
2022/06/07 09:28:10;;;;;;;13.25;8.38;;;17.20;99.90;;;;;;4885382;29;20041;-60
2022/06/07 09:30:43;;;;;;;16.58;8.10;;;17.20;99.90;;;;;;4884380;29;20052;-57
2022/06/07 09:33:27;;;;;;;13.52;7.30;;;17.20;99.90;;;;;;4892227;29;20056;-58
2022/06/07 09:35:59;;;;;;;13.05;7.32;;;17.30;99.90;;;;;;4891235;29;20056;-58
2022/06/07 09:38:34;;;;;;;18.70;8.82;;;17.40;99.90;;;;;;4868682;29;20103;-58
2022/06/07 09:41:36;;;;;;;12.48;7.63;;;17.70;99.90;;;;;;4892728;29;20383;-58
2022/06/07 09:44:01;;;;;;;14.77;8.05;;;17.90;99.90;;;;;;4882505;29;20057;-58
2022/06/07 09:46:30;;;;;;;12.80;8.45;;;18.10;99.90;;;;;;4890338;29;20037;-58
2022/06/07 09:48:58;;;;;;;13.73;8.00;;;18.20;99.90;;;;;;4891229;29;20053;-58
2022/06/07 09:51:34;;;;;;;13.23;8.00;;;18.40;99.90;;;;;;4884412;29;20060;-59
2022/06/07 09:54:05;;;;;;;14.18;7.38;;;18.50;99.90;;;;;;4877576;29;20052;-58
2022/06/07 09:56:54;;;;;;;13.63;6.55;;;18.50;99.90;;;;;;4890056;29;20056;-58
2022/06/07 09:59:30;;;;;;;10.40;6.55;;;18.60;99.90;;;;;;4884107;29;20481;-58
2022/06/07 10:02:26;;;;;;;8.45;5.18;;;18.80;99.90;;;;;;4893465;29;20608;-58
2022/06/07 10:05:26;;;;;;;10.30;5.50;;;19.00;99.90;;;;;;4888400;29;20052;-57
2022/06/07 10:08:15;;;;;;;8.85;5.25;;;19.30;99.90;;;;;;4889718;29;20051;-58
2022/06/07 10:11:02;;;;;;;11.02;5.55;;;19.50;99.90;;;;;;4889746;29;20053;-58
2022/06/07 10:13:33;;;;;;;9.38;4.85;;;19.70;99.90;;;;;;4884659;29;20044;-58
2022/06/07 10:16:29;;;;;;;10.05;5.30;;;20.00;99.90;;;;;;4878844;29;20067;-58
2022/06/07 10:19:12;;;;;;;9.82;5.57;;;20.10;99.90;;;;;;4888295;29;20523;-58
2022/06/07 10:21:51;;;;;;;7.90;4.95;;;20.30;99.90;;;;;;4877523;29;20405;-59
2022/06/07 10:24:37;;;;;;;9.23;4.68;;;20.30;99.90;;;;;;4898635;29;20506;-58
2022/06/07 10:27:22;;;;;;;8.65;5.40;;;20.40;99.90;;;;;;4874948;29;20049;-58
2022/06/07 10:30:27;;;;;;;7.85;5.72;;;20.20;99.90;;;;;;4876383;29;20139;-58
2022/06/07 10:33:19;;;;;;;9.95;5.68;;;19.80;99.90;;;;;;4879291;29;20045;-58
2022/06/07 10:36:05;;;;;;;10.32;6.28;;;19.60;99.90;;;;;;4885466;29;20052;-58
2022/06/07 10:38:42;;;;;;;8.93;5.43;;;19.40;99.90;;;;;;4889113;29;20048;-58
2022/06/07 10:41:25;;;;;;;8.20;4.30;;;19.30;99.90;;;;;;4891573;29;20076;-59
2022/06/07 10:44:22;;;;;;;6.90;4.43;;;19.30;99.90;;;;;;4889156;29;20053;-59
2022/06/07 10:46:50;;;;;;;7.95;4.93;;;19.50;99.90;;;;;;4887544;29;20055;-58
2022/06/07 10:49:21;;;;;;;9.32;4.88;;;19.80;99.90;;;;;;4889538;29;20044;-58
2022/06/07 10:55:08;;;;;;;7.25;4.38;;;20.30;99.90;;;;;;4885842;29;20049;-58
2022/06/07 10:57:55;;;;;;;9.73;5.15;;;20.50;99.90;;;;;;4889465;29;20052;-57
2022/06/07 11:01:03;;;;;;;7.15;4.78;;;20.60;99.90;;;;;;4886363;29;20049;-57
2022/06/07 11:04:01;;;;;;;7.35;4.43;;;20.70;99.90;;;;;;4893529;29;20041;-57
2022/06/07 11:09:47;;;;;;;11.00;6.13;;;20.80;99.90;;;;;;4890624;29;20045;-58
2022/06/07 11:12:21;;;;;;;7.28;4.30;;;21.00;99.90;;;;;;4891286;29;20056;-58
2022/06/07 11:15:02;;;;;;;5.90;4.47;;;21.20;99.90;;;;;;4892755;29;20507;-59
2022/06/07 11:18:03;;;;;;;8.68;4.30;;;21.30;99.90;;;;;;4885872;29;20072;-60
2022/06/07 11:20:50;;;;;;;5.78;4.00;;;21.40;99.90;;;;;;4882023;29;20478;-59
2022/06/07 11:23:29;;;;;;;6.03;4.30;;;21.60;99.90;;;;;;4894294;29;20246;-59
2022/06/07 11:25:59;;;;;;;7.32;4.60;;;21.80;99.90;;;;;;4894363;29;20048;-59
2022/06/07 11:28:39;;;;;;;7.80;4.22;;;21.90;99.70;;;;;;4887027;29;20049;-59
2022/06/07 11:31:41;;;;;;;6.68;4.22;;;22.00;99.30;;;;;;4883230;29;20072;-59
2022/06/07 11:34:31;;;;;;;5.13;3.63;;;22.20;99.50;;;;;;4880144;29;20057;-59
2022/06/07 11:37:08;;;;;;;5.43;3.80;;;22.40;98.60;;;;;;4869613;29;20393;-59
2022/06/07 11:39:39;;;;;;;5.20;3.60;;;22.50;98.00;;;;;;4884121;29;20139;-59
2022/06/07 11:42:06;;;;;;;5.25;2.90;;;22.40;97.30;;;;;;4874655;29;20061;-59
2022/06/07 11:44:58;;;;;;;7.28;4.10;;;22.40;97.10;;;;;;4882024;29;20053;-59
2022/06/07 11:47:30;;;;;;;5.43;3.08;;;22.30;97.20;;;;;;4872638;29;20525;-59
2022/06/07 11:50:00;;;;;;;7.50;4.03;;;22.30;96.40;;;;;;4896243;29;20065;-59
2022/06/07 11:52:32;;;;;;;5.32;3.72;;;22.40;97.30;;;;;;4892565;29;20052;-59
2022/06/07 11:55:17;;;;;;;5.07;3.10;;;22.40;97.00;;;;;;4873040;29;20055;-59
2022/06/07 11:58:04;;;;;;;4.85;2.97;;;22.70;96.40;;;;;;4892205;29;20052;-59
2022/06/07 12:00:34;;;;;;;4.95;3.35;;;22.90;95.50;;;;;;4895543;29;20056;-59
2022/06/07 12:03:08;;;;;;;4.20;3.30;;;22.90;94.90;;;;;;4890765;29;20486;-59
2022/06/07 12:05:36;;;;;;;6.45;3.28;;;22.90;95.30;;;;;;4888827;29;20101;-59
2022/06/07 12:08:30;;;;;;;4.30;3.15;;;23.20;95.30;;;;;;4884328;29;20369;-59
2022/06/07 12:10:57;;;;;;;4.10;2.95;;;23.30;94.30;;;;;;4883400;29;20531;-58
2022/06/07 12:13:52;;;;;;;6.22;3.28;;;23.30;94.20;;;;;;4892385;29;20053;-59
2022/06/07 12:16:37;;;;;;;13.65;3.65;;;23.20;93.90;;;;;;4893569;29;20485;-59
2022/06/07 12:19:16;;;;;;;5.65;4.05;;;23.10;94.30;;;;;;4878962;29;20041;-58
2022/06/07 12:21:54;;;;;;;3.67;3.05;;;23.00;93.50;;;;;;4891555;29;20044;-59
2022/06/07 12:24:23;;;;;;;5.75;3.80;;;22.80;94.00;;;;;;4888787;29;20070;-59
2022/06/07 12:26:51;;;;;;;9.80;4.40;;;22.70;94.00;;;;;;4880097;29;20064;-61
2022/06/07 12:29:25;;;;;;;5.97;3.40;;;22.60;94.00;;;;;;4892978;29;20044;-59
2022/06/07 12:31:59;;;;;;;4.60;3.47;;;22.60;93.40;;;;;;4881374;29;20052;-59
2022/06/07 12:34:30;;;;;;;5.82;3.92;;;22.60;93.60;;;;;;4879527;29;20075;-59
2022/06/07 12:37:19;;;;;;;5.15;4.35;;;22.90;94.10;;;;;;4877764;29;20045;-59
2022/06/07 12:39:58;;;;;;;6.10;4.30;;;23.50;93.20;;;;;;4891896;29;20517;-59
2022/06/07 12:42:32;;;;;;;6.50;4.05;;;24.20;92.50;;;;;;4886410;29;20056;-58
2022/06/07 12:45:21;;;;;;;7.28;4.25;;;24.50;91.10;;;;;;4892757;29;20040;-58
2022/06/07 12:47:58;;;;;;;5.88;4.25;;;24.70;90.80;;;;;;4890718;29;20077;-58
2022/06/07 12:50:35;;;;;;;4.55;3.30;;;24.80;91.10;;;;;;4889574;29;20056;-58
2022/06/07 12:53:07;;;;;;;6.10;3.72;;;25.00;88.70;;;;;;4886861;29;20048;-58
2022/06/07 12:55:38;;;;;;;5.60;4.00;;;24.90;87.30;;;;;;4891268;29;20043;-58
2022/06/07 12:58:18;;;;;;;5.90;3.60;;;24.70;87.40;;;;;;4887981;29;20049;-59
2022/06/07 13:00:47;;;;;;;6.03;3.10;;;24.30;87.90;;;;;;4883593;29;20056;-59
2022/06/07 13:03:45;;;;;;;5.10;3.08;;;23.90;89.00;;;;;;4894145;29;20056;-59
2022/06/07 13:06:19;;;;;;;9.10;4.35;;;23.60;89.90;;;;;;4877298;29;20056;-58
2022/06/07 13:09:18;;;;;;;6.90;3.65;;;23.50;90.80;;;;;;4870694;29;20044;-58
2022/06/07 13:11:47;;;;;;;6.27;3.00;;;23.80;90.80;;;;;;4876098;29;20437;-59
2022/06/07 13:14:16;;;;;;;4.30;3.20;;;24.20;90.30;;;;;;4877609;29;20053;-59
2022/06/07 13:16:46;;;;;;;3.65;2.72;;;24.30;85.60;;;;;;4893182;29;20052;-59
2022/06/07 13:19:14;;;;;;;;;;;24.00;85.20;;;;;;4890215;29;20055;-58
2022/06/07 13:22:22;;;;;;;4.28;3.05;;;23.70;85.00;;;;;;4889358;29;20322;-59
2022/06/07 13:24:54;;;;;;;5.65;2.80;;;23.40;87.10;;;;;;4882347;29;20052;-58
2022/06/07 13:27:32;;;;;;;5.88;3.22;;;23.20;87.70;;;;;;4890720;29;20048;-59
2022/06/07 13:30:00;;;;;;;4.75;2.83;;;23.00;88.60;;;;;;4894217;29;20056;-59
2022/06/07 13:32:28;;;;;;;6.22;2.83;;;22.70;89.20;;;;;;4888650;29;20037;-59